• Join FlightAware (Why Join?)
  • Login
  • US Flag 
07:10AM EDT


 

Airport Tracker/Info


-or-


 

Live Flight TrackerFlight Track Log ✈ EJA380 ✈ 22-Jul-2013 ✈ KSBA - KGJT

Flight Track Log - Related Links

Times and Time Zones

All times are in EDT time to prevent confusion due to time zone crossing. See the EJA380 flight status page for this flight to view local times or setup timezone preferences in your user account.

Time Position Orientation Groundspeed Altitude Reporting Facility
EDT Latitude Longitude Course Direction KTS MPH feet Rate Location/Type
12:03PM 34.4278 -119.8297 140° Southeast 177 204 900  Level Los Angeles Center
12:04PM 34.3886 -119.7903 140° Southeast 214 246 3,600 3,060 Climbing Los Angeles Center
12:05PM 34.3269 -119.7556 155° Southeast 255 293 6,800 2,520 Climbing Los Angeles Center
12:06PM 34.2817 -119.7256 151° Southeast 271 312 7,900 1,380 Climbing Los Angeles Center
12:07PM 34.2108 -119.6853 155° Southeast 277 319 9,200 1,560 Climbing Los Angeles Center
12:08PM 34.1653 -119.6144 128° Southeast 290 334 11,200 1,740 Climbing Los Angeles Center
12:09PM 34.1633 -119.5267 92° East 321 369 12,900 1,200 Climbing Los Angeles Center
12:10PM 34.1581 -119.3617 92° East 369 425 13,800 960 Climbing Los Angeles Center
12:11PM 34.1553 -119.2400 92° East 364 419 15,000 1,440 Climbing Los Angeles Center
12:12PM 34.1525 -119.1175 92° East 365 420 17,100 2,340 Climbing Los Angeles Center
12:13PM 34.1553 -118.9558 89° East 369 425 20,400 2,400 Climbing Los Angeles Center
12:15PM 34.1719 -118.8300 81° East 380 437 22,600 1,200 Climbing Los Angeles Center
12:16PM 34.1869 -118.6872 83° East 395 455 23,200 1,500 Climbing Los Angeles Center
12:17PM 34.2092 -118.5242 81° East 409 471 25,700 2,220 Climbing Los Angeles Center
12:18PM 34.2586 -118.3961 65° Northeast 418 481 27,800 1,860 Climbing Los Angeles Center
12:19PM 34.3081 -118.2692 65° Northeast 418 481 30,000 1,920 Climbing Los Angeles Center
12:20PM 34.3689 -118.1164 64° Northeast 418 481 32,300 2,160 Climbing Los Angeles Center
12:21PM 34.4244 -117.9736 65° Northeast 424 488 34,500 1,260 Climbing Los Angeles Center
12:22PM 34.4761 -117.8442 64° Northeast 427 491 35,000 660 Climbing Los Angeles Center
12:23PM 34.5297 -117.7053 65° Northeast 449 517 35,900 780 Climbing Los Angeles Center
12:24PM 34.5850 -117.5644 64° Northeast 463 533 36,900 480 Climbing Los Angeles Center
12:25PM 34.6606 -117.3653 65° Northeast 469 540 37,000  Climbing Los Angeles Center
12:27PM 34.7506 -117.2050 56° Northeast 485 558 37,000  Level Los Angeles Center
12:28PM 34.8172 -117.1036 51° Northeast 485 558 37,000 360 Level Los Angeles Center
12:29PM 34.9186 -116.9508 51° Northeast 488 562 37,800 960 Climbing Los Angeles Center
12:30PM 35.0183 -116.7983 51° Northeast 483 556 39,000 540 Climbing Los Angeles Center
12:31PM 35.1017 -116.6731 51° Northeast 476 548 39,000  Level Los Angeles Center
12:32PM 35.1842 -116.5469 51° Northeast 476 548 39,000  Level Los Angeles Center
12:33PM 35.2650 -116.4189 52° Northeast 478 550 39,000  Level Los Angeles Center
12:34PM 35.3472 -116.2928 51° Northeast 476 548 39,000  Level Los Angeles Center
12:35PM 35.4317 -116.1667 51° Northeast 477 549 39,000  Level Los Angeles Center
12:36PM 35.5328 -116.0147 51° Northeast 479 551 39,000  Level Los Angeles Center
12:37PM 35.6133 -115.8869 52° Northeast 476 548 39,000  Level Los Angeles Center
12:38PM 35.6919 -115.7631 52° Northeast 475 547 39,000  Level Los Angeles Center
12:39PM 35.7742 -115.6350 52° Northeast 478 550 39,000  Level Los Angeles Center
12:40PM 35.8736 -115.4831 51° Northeast 477 549 39,000  Level Los Angeles Center
12:41PM 35.9542 -115.3558 52° Northeast 473 544 39,000  Level Los Angeles Center
12:42PM 36.0336 -115.2308 52° Northeast 466 536 39,000  Level Los Angeles Center
12:43PM 36.1189 -115.1075 49° Northeast 472 543 39,000  Level Los Angeles Center
12:44PM 36.2300 -114.9678 45° Northeast 478 550 39,000  Level Los Angeles Center
12:45PM 36.3225 -114.8503 46° Northeast 479 551 39,000  Level Los Angeles Center
12:46PM 36.4142 -114.7319 46° Northeast 478 550 39,000  Level Los Angeles Center
12:47PM 36.5064 -114.6117 46° Northeast 481 554 39,000  Level Los Angeles Center
12:48PM 36.5975 -114.4917 47° Northeast 480 552 39,000  Level Los Angeles Center
12:49PM 36.6897 -114.3719 46° Northeast 479 551 39,000  Level Los Angeles Center
12:51PM 36.7903 -114.2167 51° Northeast 480 552 39,000  Level Los Angeles Center
12:52PM 36.8578 -114.0750 59° Northeast 477 549 39,000  Level Los Angeles Center
12:53PM 36.9264 -113.9322 59° Northeast 478 550 39,000  Level Los Angeles Center
12:54PM 37.0036 -113.7742 59° Northeast 478 550 39,000  Level Los Angeles Center
12:55PM 37.0706 -113.6311 60° Northeast 478 550 39,000  Level Los Angeles Center
12:56PM 37.1392 -113.4878 59° Northeast 480 552 39,000  Level Los Angeles Center
12:57PM 37.2067 -113.3461 59° Northeast 478 550 39,000  Level Los Angeles Center
12:58PM 37.2733 -113.2028 60° Northeast 478 550 39,000  Level Los Angeles Center
12:59PM 37.3406 -113.0600 59° Northeast 479 551 39,000  Level Los Angeles Center
01:00PM 37.4300 -112.8594 61° Northeast 478 550 39,000  Level Salt Lake Center
01:01PM 37.4964 -112.7164 60° Northeast 485 558 39,000  Level Salt Lake Center
01:02PM 37.5633 -112.5733 59° Northeast 484 557 39,000  Level Los Angeles Center
01:03PM 37.6303 -112.4317 59° Northeast 478 550 39,000  Level Salt Lake Center
01:04PM 37.7100 -112.2581 60° Northeast 479 551 39,000  Level Salt Lake Center
01:05PM 37.7769 -112.1131 60° Northeast 480 552 39,000  Level Salt Lake Center
01:06PM 37.8439 -111.9681 60° Northeast 479 551 39,000  Level Salt Lake Center
01:07PM 37.9108 -111.8228 60° Northeast 479 551 39,000  Level Salt Lake Center
01:08PM 37.9778 -111.6769 60° Northeast 480 552 39,000  Level Salt Lake Center
01:09PM 38.0597 -111.5019 59° Northeast 482 555 39,000  Level Salt Lake Center
01:10PM 38.1264 -111.3542 60° Northeast 484 557 39,000  Level Salt Lake Center
01:11PM 38.1922 -111.2058 61° Northeast 484 557 39,000  Level Salt Lake Center
01:12PM 38.2586 -111.0569 60° Northeast 485 558 39,000  Level Salt Lake Center
01:13PM 38.3303 -110.8997 60° Northeast 483 556 39,000  Level Salt Lake Center
01:15PM 38.3936 -110.7550 61° Northeast 488 562 39,000  Level Salt Lake Center
01:16PM 38.4592 -110.5822 64° Northeast 486 559 39,000  Level Salt Lake Center
01:17PM 38.5108 -110.4300 67° East 487 560 39,000  Level Salt Lake Center
01:18PM 38.5725 -110.2536 66° East 487 560 39,000  Level Salt Lake Center
01:19PM 38.5833 -110.0917 85° East 488 562 39,000  Level Salt Lake Center
01:20PM 38.5597 -109.9011 99° East 486 559 39,000 -540 Level Salt Lake Center
01:21PM 38.5442 -109.7439 97° East 473 544 38,000 -2,160 Descending Salt Lake Center
01:22PM 38.5244 -109.5642 98° East 463 533 34,600 -3,300 Descending Salt Lake Center
01:23PM 38.5542 -109.4172 75° East 450 518 31,300 -3,480 Descending Salt Lake Center
01:24PM 38.6369 -109.2808 52° Northeast 435 501 27,500 -3,480 Descending Salt Lake Center
01:25PM 38.7081 -109.1764 49° Northeast 421 484 24,200 -3,480 Descending Salt Lake Center
01:26PM 38.7856 -109.0614 49° Northeast 400 460 20,400 -3,360 Descending Salt Lake Center
01:27PM 38.8469 -108.9714 49° Northeast 374 430 17,300 -3,180 Descending Salt Lake Center
01:28PM 38.9178 -108.8717 48° Northeast 353 406 13,900 -2,940 Descending Salt Lake Center
01:29PM 38.9792 -108.8017 42° Northeast 332 382 11,300 -2,220 Descending Salt Lake Center
01:30PM 39.0419 -108.7297 42° Northeast 294 338 9,400 -1,560 Descending Salt Lake Center
01:31PM 39.0919 -108.6700 43° Northeast 273 314 8,100 -1,260 Descending Salt Lake Center
01:32PM 39.1353 -108.6133 45° Northeast 223 257 6,800 -1,260 Descending Salt Lake Center
01:34PM 39.1378 -108.5503 87° East 142 163 5,000 -780 Descending Denver Center
01:35PM 39.1233 -108.5231 124° Southeast 83 96 4,900 -60 Descending Denver Center
01:36PM 39.1156 -108.5169 149° Southeast 68 78 4,900  Level Denver Center